createdAt,value
2022-10-11T00:01:24.565Z,12.30
2022-10-11T00:03:51.505Z,12.20
2022-10-11T00:06:18.176Z,12.20
2022-10-11T00:08:44.772Z,12.00
2022-10-11T00:11:11.663Z,12.00
2022-10-11T00:13:38.340Z,11.90
2022-10-11T00:16:10.303Z,11.90
2022-10-11T00:18:37.244Z,11.80
2022-10-11T00:21:10.238Z,11.70
2022-10-11T00:23:36.971Z,11.60
2022-10-11T00:26:05.918Z,11.50
2022-10-11T00:28:33.684Z,11.40
2022-10-11T00:31:00.792Z,11.30
2022-10-11T00:33:27.728Z,11.30
2022-10-11T00:35:54.338Z,11.20
2022-10-11T00:38:20.939Z,11.10
2022-10-11T00:40:47.719Z,11.10
2022-10-11T00:43:20.730Z,11.10
2022-10-11T00:45:56.479Z,11.10
2022-10-11T00:49:07.545Z,11.10
2022-10-11T00:51:38.437Z,11.10
2022-10-11T00:54:07.349Z,11.00
2022-10-11T00:56:37.710Z,10.90
2022-10-11T00:59:10.688Z,10.90
2022-10-11T01:01:37.557Z,10.80
2022-10-11T01:04:04.723Z,10.70
2022-10-11T01:06:31.648Z,10.70
2022-10-11T01:08:58.276Z,10.70
2022-10-11T01:11:27.225Z,10.70
2022-10-11T01:14:35.310Z,10.70
2022-10-11T01:17:30.278Z,10.50
2022-10-11T01:20:21.091Z,10.50
2022-10-11T01:22:56.398Z,10.50
2022-10-11T01:25:52.832Z,10.40
2022-10-11T01:28:32.377Z,10.30
2022-10-11T01:31:11.620Z,10.30
2022-10-11T01:33:58.492Z,10.30
2022-10-11T01:36:45.189Z,10.30
2022-10-11T01:39:37.045Z,10.30
2022-10-11T01:42:06.317Z,10.20
2022-10-11T01:44:34.356Z,10.20
2022-10-11T01:47:00.949Z,10.10
2022-10-11T01:49:27.572Z,10.10
2022-10-11T01:51:58.077Z,10.00
2022-10-11T01:55:04.380Z,9.90
2022-10-11T01:57:57.248Z,9.90
2022-10-11T02:00:28.670Z,9.90
2022-10-11T02:03:17.604Z,9.90
2022-10-11T02:06:08.779Z,9.90
2022-10-11T02:08:47.519Z,9.90
2022-10-11T02:11:26.405Z,9.80
2022-10-11T02:14:21.943Z,9.80
2022-10-11T02:16:57.643Z,9.80
2022-10-11T02:19:31.520Z,9.70
2022-10-11T02:22:07.580Z,9.70
2022-10-11T02:24:38.107Z,9.60
2022-10-11T02:27:05.765Z,9.50
2022-10-11T02:29:35.883Z,9.50
2022-10-11T02:32:02.812Z,9.40
2022-10-11T02:34:32.437Z,9.30
2022-10-11T02:37:10.191Z,9.20
2022-10-11T02:39:55.853Z,9.20
2022-10-11T02:42:30.586Z,9.10
2022-10-11T02:45:02.676Z,9.00
2022-10-11T02:47:30.484Z,9.00
2022-10-11T02:50:00.851Z,9.00
2022-10-11T02:52:28.071Z,9.00
2022-10-11T02:54:54.844Z,9.00
2022-10-11T02:57:21.428Z,8.90
2022-10-11T02:59:48.021Z,8.90
2022-10-11T03:02:15.148Z,8.90
2022-10-11T03:04:41.742Z,8.90
2022-10-11T03:07:08.332Z,8.90
2022-10-11T03:09:35.164Z,8.90
2022-10-11T03:12:01.763Z,8.90
2022-10-11T03:14:28.445Z,8.90
2022-10-11T03:16:55.787Z,8.80
2022-10-11T03:19:27.337Z,8.70
2022-10-11T03:21:53.929Z,8.70
2022-10-11T03:24:20.673Z,8.70
2022-10-11T03:26:47.374Z,8.60
2022-10-11T03:29:13.957Z,8.60
2022-10-11T03:31:40.597Z,8.50
2022-10-11T03:34:07.629Z,8.50
2022-10-11T03:36:34.289Z,8.50
2022-10-11T03:39:01.004Z,8.50
2022-10-11T03:41:27.630Z,8.40
2022-10-11T03:43:54.294Z,8.40
2022-10-11T03:46:20.930Z,8.30
2022-10-11T03:48:48.502Z,8.30
2022-10-11T03:51:15.718Z,8.30
2022-10-11T03:53:42.378Z,8.30
2022-10-11T03:56:09.345Z,8.20
2022-10-11T03:58:36.077Z,8.20
2022-10-11T04:01:02.708Z,8.20
2022-10-11T04:03:29.413Z,8.20
2022-10-11T04:05:56.037Z,8.10
2022-10-11T04:08:22.592Z,8.20
2022-10-11T04:10:49.338Z,8.10
2022-10-11T04:13:16.006Z,8.10
2022-10-11T04:15:42.716Z,8.10
2022-10-11T04:18:09.813Z,8.10
2022-10-11T04:20:36.461Z,8.00
2022-10-11T04:23:03.337Z,8.00
2022-10-11T04:25:30.016Z,8.00
2022-10-11T04:27:56.659Z,8.00
2022-10-11T04:30:23.464Z,7.90
2022-10-11T04:32:50.035Z,7.90
2022-10-11T04:35:16.860Z,7.90
2022-10-11T04:37:43.469Z,7.90
2022-10-11T04:40:10.868Z,7.90
2022-10-11T04:42:37.488Z,7.80
2022-10-11T04:45:04.911Z,7.80
2022-10-11T04:47:31.630Z,7.70
2022-10-11T04:49:58.214Z,7.70
2022-10-11T04:52:26.012Z,7.70
2022-10-11T04:54:52.705Z,7.60
2022-10-11T04:57:19.281Z,7.60
2022-10-11T04:59:50.030Z,7.60
2022-10-11T05:02:17.089Z,7.50
2022-10-11T05:04:43.925Z,7.50
2022-10-11T05:07:10.527Z,7.50
2022-10-11T05:09:37.149Z,7.50
2022-10-11T05:12:04.055Z,7.50
2022-10-11T05:14:30.708Z,7.40
2022-10-11T05:16:57.341Z,7.40
2022-10-11T05:19:24.021Z,7.40
2022-10-11T05:21:50.624Z,7.30
2022-10-11T05:24:17.274Z,7.30
2022-10-11T05:26:43.864Z,7.20
2022-10-11T05:29:10.424Z,7.20
2022-10-11T05:31:36.992Z,7.20
2022-10-11T05:34:03.857Z,7.10
2022-10-11T05:36:30.469Z,7.10
2022-10-11T05:38:57.141Z,7.10
2022-10-11T05:41:23.831Z,7.10
2022-10-11T05:43:50.722Z,7.10
2022-10-11T05:46:17.772Z,7.10
2022-10-11T05:48:44.375Z,7.10
2022-10-11T05:51:11.926Z,7.10
2022-10-11T05:53:39.208Z,7.10
2022-10-11T05:56:20.320Z,7.10
2022-10-11T05:58:46.997Z,7.10
2022-10-11T06:01:23.109Z,7.20
2022-10-11T06:03:50.129Z,7.30
2022-10-11T06:06:17.341Z,7.30
2022-10-11T06:08:44.681Z,7.30
2022-10-11T06:11:25.278Z,7.40
2022-10-11T06:13:57.256Z,7.40
2022-10-11T06:16:24.478Z,7.40
2022-10-11T06:18:54.921Z,7.40
2022-10-11T06:21:21.922Z,7.50
2022-10-11T06:23:50.657Z,7.50
2022-10-11T06:26:18.047Z,7.50
2022-10-11T06:28:45.555Z,7.60
2022-10-11T06:31:12.848Z,7.70
2022-10-11T06:33:39.614Z,7.70
2022-10-11T06:36:11.177Z,7.80
2022-10-11T06:38:43.827Z,7.90
2022-10-11T06:41:20.165Z,7.90
2022-10-11T06:43:46.833Z,8.00
2022-10-11T06:46:13.398Z,8.00
2022-10-11T06:48:43.278Z,8.10
2022-10-11T06:51:11.377Z,8.20
2022-10-11T06:53:38.023Z,8.30
2022-10-11T06:56:13.966Z,8.40
2022-10-11T06:58:40.721Z,8.50
2022-10-11T07:01:11.345Z,8.60
2022-10-11T07:03:38.532Z,8.70
2022-10-11T07:06:11.143Z,8.70
2022-10-11T07:08:38.732Z,8.80
2022-10-11T07:11:08.727Z,8.90
2022-10-11T07:13:36.218Z,9.00
2022-10-11T07:16:11.548Z,9.10
2022-10-11T07:18:38.881Z,9.20
2022-10-11T07:21:07.374Z,9.20
2022-10-11T07:23:34.476Z,9.30
2022-10-11T07:26:01.215Z,9.40
2022-10-11T07:28:30.299Z,9.40
2022-10-11T07:30:58.574Z,9.50
2022-10-11T07:33:25.471Z,9.60
2022-10-11T07:35:56.312Z,9.70
2022-10-11T07:38:22.913Z,9.70
2022-10-11T07:40:49.576Z,9.80
2022-10-11T07:43:16.180Z,9.80
2022-10-11T07:45:45.374Z,10.00
2022-10-11T07:48:12.039Z,10.10
2022-10-11T07:50:38.768Z,10.10
2022-10-11T07:53:05.449Z,10.20
2022-10-11T07:55:40.099Z,10.20
2022-10-11T07:58:11.468Z,10.40
2022-10-11T08:00:39.305Z,10.60
2022-10-11T08:03:06.979Z,10.70
2022-10-11T08:05:34.480Z,10.80
2022-10-11T08:08:01.162Z,11.00
2022-10-11T08:10:28.377Z,11.10
2022-10-11T08:12:54.949Z,11.20
2022-10-11T08:15:21.927Z,11.40
2022-10-11T08:17:48.706Z,11.60
2022-10-11T08:20:15.373Z,11.70
2022-10-11T08:22:41.997Z,11.90
2022-10-11T08:25:08.767Z,12.00
2022-10-11T08:27:36.326Z,12.10
2022-10-11T08:30:03.589Z,12.20
2022-10-11T08:32:30.437Z,12.40
2022-10-11T08:34:57.084Z,12.60
2022-10-11T08:37:23.726Z,12.80
2022-10-11T08:39:50.354Z,12.90
2022-10-11T08:42:41.310Z,13.00
2022-10-11T08:45:13.936Z,13.00
2022-10-11T08:47:44.396Z,13.20
2022-10-11T08:50:19.646Z,13.40
2022-10-11T08:53:08.094Z,13.50
2022-10-11T08:55:44.933Z,13.70
2022-10-11T08:58:21.559Z,13.90
2022-10-11T09:00:52.827Z,14.10
2022-10-11T09:03:40.592Z,14.20
2022-10-11T09:06:47.844Z,14.30
2022-10-11T09:09:50.110Z,14.50
2022-10-11T09:12:52.305Z,14.50
2022-10-11T09:15:54.977Z,14.30
2022-10-11T09:18:55.003Z,14.20
2022-10-11T09:21:42.881Z,14.20
2022-10-11T09:24:28.579Z,14.10
2022-10-11T09:26:57.631Z,14.20
2022-10-11T09:29:52.710Z,14.40
2022-10-11T09:32:21.291Z,14.60
2022-10-11T09:35:01.407Z,14.60
2022-10-11T09:37:35.526Z,14.60
2022-10-11T09:40:04.912Z,14.40
2022-10-11T09:42:31.485Z,14.40
2022-10-11T09:44:59.978Z,14.40
2022-10-11T09:47:29.017Z,14.40
2022-10-11T09:50:14.400Z,14.40
2022-10-11T09:52:52.568Z,14.40
2022-10-11T09:55:43.409Z,14.20
2022-10-11T09:58:31.070Z,14.20
2022-10-11T10:01:13.704Z,14.10
2022-10-11T10:03:43.029Z,14.10
2022-10-11T10:06:17.397Z,14.10
2022-10-11T10:08:47.020Z,14.10
2022-10-11T10:11:15.254Z,14.10
2022-10-11T10:13:51.289Z,14.20
2022-10-11T10:16:25.965Z,14.30
2022-10-11T10:18:56.511Z,14.40
2022-10-11T10:21:50.235Z,14.50
2022-10-11T10:24:30.238Z,14.50
2022-10-11T10:27:06.221Z,14.60
2022-10-11T10:29:33.121Z,14.80
2022-10-11T10:32:14.200Z,14.90
2022-10-11T10:35:08.246Z,14.90
2022-10-11T10:37:52.608Z,15.00
2022-10-11T10:40:25.575Z,14.80
2022-10-11T10:42:52.911Z,14.60
2022-10-11T10:45:24.613Z,14.30
2022-10-11T10:48:20.909Z,14.10
2022-10-11T10:50:57.877Z,14.10
2022-10-11T10:53:37.246Z,14.40
2022-10-11T10:56:15.372Z,14.60
2022-10-11T10:59:26.469Z,14.60
2022-10-11T11:02:28.050Z,14.60
2022-10-11T11:05:28.162Z,14.50
2022-10-11T11:08:12.948Z,14.80
2022-10-11T11:10:59.299Z,15.40
2022-10-11T11:13:45.847Z,16.30
2022-10-11T11:16:32.047Z,17.10
2022-10-11T11:19:18.086Z,17.30
2022-10-11T11:21:51.282Z,17.10
2022-10-11T11:24:36.689Z,17.00
2022-10-11T11:27:21.482Z,17.00
2022-10-11T11:30:11.735Z,16.90
2022-10-11T11:33:09.240Z,16.70
2022-10-11T11:35:44.002Z,16.30
2022-10-11T11:38:39.493Z,16.30
2022-10-11T11:41:14.242Z,16.00
2022-10-11T11:43:54.709Z,15.80
2022-10-11T11:46:26.590Z,15.60
2022-10-11T11:48:55.348Z,16.00
2022-10-11T11:51:30.705Z,16.50
2022-10-11T11:54:21.697Z,16.50
2022-10-11T11:56:58.145Z,16.70
2022-10-11T11:59:40.067Z,16.50
2022-10-11T12:02:33.016Z,16.90
2022-10-11T12:04:59.952Z,16.90
2022-10-11T12:07:29.302Z,16.90
2022-10-11T12:10:24.862Z,17.00
2022-10-11T12:13:02.605Z,16.60
2022-10-11T12:15:29.331Z,16.40
2022-10-11T12:17:55.897Z,16.10
2022-10-11T12:20:34.589Z,15.80
2022-10-11T12:23:30.142Z,15.50
2022-10-11T12:26:29.375Z,15.90
2022-10-11T12:29:42.858Z,16.80
2022-10-11T12:32:11.099Z,17.60
2022-10-11T12:34:43.263Z,18.20
2022-10-11T12:37:19.502Z,18.60
2022-10-11T12:39:55.873Z,18.70
2022-10-11T12:42:36.740Z,18.20
2022-10-11T12:45:12.879Z,17.80
2022-10-11T12:47:43.028Z,17.30
2022-10-11T12:50:28.812Z,17.10
2022-10-11T12:53:11.589Z,16.70
2022-10-11T12:55:48.093Z,16.40
2022-10-11T12:58:27.628Z,16.10
2022-10-11T13:00:57.748Z,15.90
2022-10-11T13:03:44.803Z,15.60
2022-10-11T13:06:24.968Z,15.40
2022-10-11T13:08:59.852Z,15.40
2022-10-11T13:12:06.720Z,15.50
2022-10-11T13:14:52.334Z,16.20
2022-10-11T13:17:32.240Z,16.80
2022-10-11T13:20:06.590Z,17.30
2022-10-11T13:22:35.644Z,17.60
2022-10-11T13:25:06.574Z,18.00
2022-10-11T13:27:33.682Z,18.00
2022-10-11T13:30:02.253Z,18.30
2022-10-11T13:32:30.982Z,18.60
2022-10-11T13:35:01.533Z,18.80
2022-10-11T13:37:29.951Z,18.70
2022-10-11T13:39:57.393Z,18.50
2022-10-11T13:42:31.652Z,18.60
2022-10-11T13:44:59.777Z,18.70
2022-10-11T13:47:29.281Z,18.70
2022-10-11T13:50:10.895Z,18.40
2022-10-11T13:52:54.278Z,17.90
2022-10-11T13:55:26.878Z,17.70
2022-10-11T13:57:53.885Z,17.70
2022-10-11T14:00:25.674Z,17.60
2022-10-11T14:03:03.790Z,17.60
2022-10-11T14:05:42.430Z,17.90
2022-10-11T14:08:38.133Z,18.10
2022-10-11T14:11:06.929Z,18.10
2022-10-11T14:13:39.833Z,18.00
2022-10-11T14:16:20.535Z,18.00
2022-10-11T14:19:03.000Z,18.00
2022-10-11T14:21:33.190Z,17.90
2022-10-11T14:24:02.863Z,18.00
2022-10-11T14:26:38.475Z,17.80
2022-10-11T14:29:09.003Z,17.40
2022-10-11T14:31:40.553Z,17.10
2022-10-11T14:34:09.304Z,16.60
2022-10-11T14:36:35.952Z,16.30
2022-10-11T14:39:02.529Z,16.20
2022-10-11T14:41:29.134Z,16.00
2022-10-11T14:43:57.821Z,15.90
2022-10-11T14:46:27.044Z,15.70
2022-10-11T14:48:56.367Z,15.50
2022-10-11T14:51:27.996Z,15.50
2022-10-11T14:53:54.742Z,15.30
2022-10-11T14:56:21.911Z,15.20
2022-10-11T14:58:48.861Z,15.10
2022-10-11T15:01:17.142Z,15.10
2022-10-11T15:03:43.999Z,15.10
2022-10-11T15:06:20.440Z,15.20
2022-10-11T15:08:47.541Z,15.20
2022-10-11T15:11:17.029Z,15.20
2022-10-11T15:13:44.314Z,15.10
2022-10-11T15:16:12.838Z,15.10
2022-10-11T15:18:39.869Z,15.10
2022-10-11T15:21:07.003Z,15.10
2022-10-11T15:23:33.698Z,15.00
2022-10-11T15:26:00.387Z,15.00
2022-10-11T15:28:31.329Z,14.90
2022-10-11T15:30:59.186Z,14.90
2022-10-11T15:33:26.274Z,14.80
2022-10-11T15:35:53.007Z,14.70
2022-10-11T15:38:22.762Z,14.60
2022-10-11T15:40:49.898Z,14.50
2022-10-11T15:43:22.017Z,14.40
2022-10-11T15:45:51.480Z,14.30
2022-10-11T15:48:19.176Z,14.20
2022-10-11T15:50:45.882Z,14.00
2022-10-11T15:53:18.722Z,14.00
2022-10-11T15:55:51.155Z,13.90
2022-10-11T15:58:23.473Z,13.70
2022-10-11T16:00:55.923Z,13.70
2022-10-11T16:03:28.373Z,13.60
2022-10-11T16:05:55.749Z,13.40
2022-10-11T16:08:22.613Z,13.40
2022-10-11T16:10:49.821Z,13.20
2022-10-11T16:13:17.480Z,13.00
2022-10-11T16:15:44.517Z,12.90
2022-10-11T16:18:14.237Z,12.70
2022-10-11T16:20:43.423Z,12.60
2022-10-11T16:23:10.528Z,12.50
2022-10-11T16:25:38.348Z,12.30
2022-10-11T16:28:07.849Z,12.20
2022-10-11T16:30:38.694Z,12.10
2022-10-11T16:33:05.471Z,11.90
2022-10-11T16:35:32.756Z,11.80
2022-10-11T16:38:00.688Z,11.80
2022-10-11T16:40:29.816Z,11.70
2022-10-11T16:42:56.471Z,11.60
2022-10-11T16:45:23.420Z,11.40
2022-10-11T16:47:50.134Z,11.40
2022-10-11T16:50:16.778Z,11.20
2022-10-11T16:52:43.340Z,11.20
2022-10-11T16:55:10.035Z,11.10
2022-10-11T16:57:37.773Z,10.90
2022-10-11T17:00:09.194Z,10.80
2022-10-11T17:02:36.070Z,10.80
2022-10-11T17:05:02.836Z,10.70
2022-10-11T17:07:30.293Z,10.60
2022-10-11T17:09:57.928Z,10.50
2022-10-11T17:12:24.981Z,10.40
2022-10-11T17:14:51.696Z,10.30
2022-10-11T17:17:19.236Z,10.30
2022-10-11T17:19:47.541Z,10.20
2022-10-11T17:22:18.333Z,10.10
2022-10-11T17:24:45.601Z,10.10
2022-10-11T17:27:12.476Z,10.00
2022-10-11T17:29:39.440Z,10.00
2022-10-11T17:32:06.173Z,9.90
2022-10-11T17:34:33.234Z,9.90
2022-10-11T17:36:59.841Z,9.80
2022-10-11T17:39:26.441Z,9.80
2022-10-11T17:41:53.109Z,9.70
2022-10-11T17:44:20.266Z,9.60
2022-10-11T17:46:47.341Z,9.60
2022-10-11T17:49:14.230Z,9.50
2022-10-11T17:51:41.739Z,9.40
2022-10-11T17:54:12.980Z,9.40
2022-10-11T17:56:42.018Z,9.30
2022-10-11T17:59:14.491Z,9.20
2022-10-11T18:01:41.207Z,9.10
2022-10-11T18:04:10.068Z,9.00
2022-10-11T18:06:39.242Z,9.00
2022-10-11T18:09:06.348Z,8.90
2022-10-11T18:11:34.179Z,8.90
2022-10-11T18:14:01.281Z,8.90
2022-10-11T18:16:29.810Z,8.80
2022-10-11T18:18:57.417Z,8.80
2022-10-11T18:21:33.670Z,8.70
2022-10-11T18:24:02.706Z,8.70
2022-10-11T18:26:30.610Z,8.70
2022-10-11T18:28:58.755Z,8.60
2022-10-11T18:31:28.563Z,8.60
2022-10-11T18:33:55.494Z,8.50
2022-10-11T18:36:25.352Z,8.40
2022-10-11T18:39:00.647Z,8.40
2022-10-11T18:41:30.647Z,8.40
2022-10-11T18:44:02.149Z,8.40
2022-10-11T18:46:29.658Z,8.30
2022-10-11T18:48:58.150Z,8.20
2022-10-11T18:51:27.348Z,8.20
2022-10-11T18:53:54.511Z,8.10
2022-10-11T18:56:23.886Z,8.10
2022-10-11T18:58:52.312Z,8.00
2022-10-11T19:01:21.572Z,8.00
2022-10-11T19:03:52.299Z,8.00
2022-10-11T19:06:22.061Z,8.00
2022-10-11T19:09:10.386Z,7.90
2022-10-11T19:11:38.339Z,7.80
2022-10-11T19:14:11.384Z,7.80
2022-10-11T19:16:40.508Z,7.80
2022-10-11T19:19:07.942Z,7.70
2022-10-11T19:21:34.578Z,7.70
2022-10-11T19:24:01.475Z,7.70
2022-10-11T19:26:31.819Z,7.60
2022-10-11T19:29:07.479Z,7.60
2022-10-11T19:31:35.938Z,7.60
2022-10-11T19:34:02.617Z,7.60
2022-10-11T19:36:34.035Z,7.50
2022-10-11T19:39:03.992Z,7.40
2022-10-11T19:41:30.679Z,7.40
2022-10-11T19:43:58.186Z,7.30
2022-10-11T19:46:50.548Z,7.30
2022-10-11T19:49:15.715Z,7.30
2022-10-11T19:51:42.342Z,7.20
2022-10-11T19:54:12.273Z,7.20
2022-10-11T19:56:38.889Z,7.10
2022-10-11T19:59:09.252Z,7.10
2022-10-11T20:01:36.903Z,7.10
2022-10-11T20:04:09.165Z,7.10
2022-10-11T20:06:39.990Z,7.00
2022-10-11T20:09:28.440Z,7.00
2022-10-11T20:11:55.092Z,7.00
2022-10-11T20:14:21.791Z,7.00
2022-10-11T20:16:50.688Z,7.00
2022-10-11T20:19:17.417Z,7.00
2022-10-11T20:21:44.903Z,6.90
2022-10-11T20:24:11.686Z,6.90
2022-10-11T20:26:39.361Z,6.80
2022-10-11T20:29:06.511Z,6.80
2022-10-11T20:31:35.098Z,6.80
2022-10-11T20:34:04.026Z,6.70
2022-10-11T20:36:33.001Z,6.70
2022-10-11T20:39:00.545Z,6.60
2022-10-11T20:41:33.149Z,6.50
2022-10-11T20:44:01.193Z,6.50
2022-10-11T20:46:31.397Z,6.40
2022-10-11T20:49:01.904Z,6.40
2022-10-11T20:51:30.150Z,6.40
2022-10-11T20:53:57.143Z,6.40
2022-10-11T20:56:23.943Z,6.40
2022-10-11T20:58:55.460Z,6.40
2022-10-11T21:01:26.320Z,6.40
2022-10-11T21:03:53.411Z,6.30
2022-10-11T21:06:20.425Z,6.30
2022-10-11T21:08:47.177Z,6.20
2022-10-11T21:11:13.787Z,6.10
2022-10-11T21:13:40.936Z,6.10
2022-10-11T21:16:16.752Z,6.10
2022-10-11T21:18:44.771Z,6.00
2022-10-11T21:21:13.905Z,5.80
2022-10-11T21:23:41.229Z,5.80
2022-10-11T21:26:10.601Z,5.80
2022-10-11T21:28:38.070Z,5.80
2022-10-11T21:31:06.280Z,5.70
2022-10-11T21:33:34.200Z,5.70
2022-10-11T21:36:17.924Z,5.70
2022-10-11T21:38:44.754Z,5.70
2022-10-11T21:41:14.557Z,5.70
2022-10-11T21:43:41.399Z,5.60
2022-10-11T21:46:18.751Z,5.60
2022-10-11T21:48:46.046Z,5.60
2022-10-11T21:51:35.211Z,5.60
2022-10-11T21:54:01.812Z,5.60
2022-10-11T21:56:29.034Z,5.60
2022-10-11T21:58:56.168Z,5.60
2022-10-11T22:01:26.016Z,5.60
2022-10-11T22:03:53.409Z,5.50
2022-10-11T22:06:21.088Z,5.50
2022-10-11T22:08:48.848Z,5.50
2022-10-11T22:11:15.861Z,5.50
2022-10-11T22:13:42.601Z,5.50
2022-10-11T22:16:11.174Z,5.40
2022-10-11T22:18:38.457Z,5.40
2022-10-11T22:21:13.911Z,5.30
2022-10-11T22:23:41.737Z,5.30
2022-10-11T22:26:11.249Z,5.30
2022-10-11T22:28:37.989Z,5.30
2022-10-11T22:31:06.039Z,5.30
2022-10-11T22:33:32.861Z,5.20
2022-10-11T22:36:01.644Z,5.20
2022-10-11T22:38:28.290Z,5.20
2022-10-11T22:40:58.357Z,5.10
2022-10-11T22:43:24.945Z,5.10
2022-10-11T22:45:51.733Z,5.10
2022-10-11T22:48:18.323Z,5.10
2022-10-11T22:50:44.928Z,5.10
2022-10-11T22:53:13.259Z,5.10
2022-10-11T22:55:40.397Z,5.00
2022-10-11T22:58:07.133Z,5.00
2022-10-11T23:00:34.180Z,5.00
2022-10-11T23:03:00.807Z,5.00
2022-10-11T23:05:27.432Z,5.00
2022-10-11T23:07:54.069Z,5.00
2022-10-11T23:10:20.729Z,4.90
2022-10-11T23:12:47.340Z,4.90
2022-10-11T23:15:15.450Z,4.80
2022-10-11T23:17:42.428Z,4.80
2022-10-11T23:20:09.418Z,4.80
2022-10-11T23:22:36.092Z,4.70
2022-10-11T23:25:03.004Z,4.70
2022-10-11T23:27:30.080Z,4.70
2022-10-11T23:29:56.761Z,4.70
2022-10-11T23:32:23.847Z,4.70
2022-10-11T23:34:51.453Z,4.60
2022-10-11T23:37:18.143Z,4.60
2022-10-11T23:39:45.278Z,4.60
2022-10-11T23:42:12.147Z,4.60
2022-10-11T23:44:38.837Z,4.50
2022-10-11T23:47:05.519Z,4.50
2022-10-11T23:49:32.080Z,4.50
2022-10-11T23:52:01.164Z,4.50
2022-10-11T23:54:27.936Z,4.50
2022-10-11T23:56:54.582Z,4.50
2022-10-11T23:59:21.436Z,4.40
